createdAt,value
2022-10-18T00:02:29.937Z,7.13
2022-10-18T00:05:19.916Z,6.80
2022-10-18T00:08:08.355Z,6.50
2022-10-18T00:10:56.784Z,6.33
2022-10-18T00:13:45.249Z,6.67
2022-10-18T00:16:33.774Z,6.30
2022-10-18T00:19:25.884Z,7.63
2022-10-18T00:22:18.392Z,7.43
2022-10-18T00:25:08.014Z,7.30
2022-10-18T00:27:56.445Z,6.50
2022-10-18T00:30:44.879Z,7.60
2022-10-18T00:33:33.315Z,6.13
2022-10-18T00:36:22.099Z,7.27
2022-10-18T00:39:16.415Z,6.03
2022-10-18T00:42:05.404Z,7.13
2022-10-18T00:45:19.060Z,6.97
2022-10-18T00:48:07.563Z,6.90
2022-10-18T00:50:55.999Z,6.63
2022-10-18T00:53:44.475Z,6.63
2022-10-18T00:56:35.097Z,6.80
2022-10-18T00:59:24.288Z,7.40
2022-10-18T01:02:14.904Z,7.07
2022-10-18T01:05:03.639Z,7.50
2022-10-18T01:08:10.658Z,6.70
2022-10-18T01:11:08.425Z,7.57
2022-10-18T01:14:03.377Z,6.90
2022-10-18T01:16:57.264Z,7.10
2022-10-18T01:20:24.763Z,6.93
2022-10-18T01:23:18.616Z,7.10
2022-10-18T01:26:18.265Z,7.10
2022-10-18T01:29:18.308Z,7.40
2022-10-18T01:32:11.554Z,7.30
2022-10-18T01:35:03.424Z,7.43
2022-10-18T01:37:52.390Z,7.10
2022-10-18T01:40:42.227Z,7.70
2022-10-18T01:43:31.184Z,6.63
2022-10-18T01:46:23.462Z,7.17
2022-10-18T01:49:13.455Z,6.63
2022-10-18T01:52:02.190Z,7.33
2022-10-18T01:54:50.736Z,7.10
2022-10-18T01:57:42.501Z,6.60
2022-10-18T02:00:36.120Z,6.50
2022-10-18T02:03:25.542Z,6.60
2022-10-18T02:06:20.621Z,7.07
2022-10-18T02:09:11.594Z,6.10
2022-10-18T02:12:00.301Z,6.80
2022-10-18T02:14:49.027Z,6.97
2022-10-18T02:17:38.554Z,6.73
2022-10-18T02:20:29.427Z,6.90
2022-10-18T02:23:22.099Z,6.73
2022-10-18T02:26:10.607Z,5.97
2022-10-18T02:28:59.011Z,6.50
2022-10-18T02:31:49.863Z,6.30
2022-10-18T02:34:40.456Z,7.47
2022-10-18T02:37:32.594Z,6.63
2022-10-18T02:40:22.587Z,7.43
2022-10-18T02:43:11.044Z,6.90
2022-10-18T02:45:59.626Z,7.37
2022-10-18T02:48:48.109Z,5.70
2022-10-18T02:51:36.521Z,7.50
2022-10-18T02:54:25.149Z,6.00
2022-10-18T02:57:14.932Z,6.77
2022-10-18T03:00:03.503Z,6.43
2022-10-18T03:02:53.725Z,6.57
2022-10-18T03:05:42.161Z,7.10
2022-10-18T03:08:30.708Z,6.70
2022-10-18T03:11:19.172Z,6.50
2022-10-18T03:14:09.004Z,5.93
2022-10-18T03:16:57.539Z,6.27
2022-10-18T03:19:45.997Z,7.43
2022-10-18T03:22:34.460Z,7.07
2022-10-18T03:25:23.000Z,6.70
2022-10-18T03:28:11.585Z,6.43
2022-10-18T03:31:02.840Z,6.60
2022-10-18T03:33:51.267Z,7.07
2022-10-18T03:36:41.186Z,6.80
2022-10-18T03:39:29.605Z,6.60
2022-10-18T03:42:18.004Z,6.30
2022-10-18T03:45:07.416Z,6.73
2022-10-18T03:47:57.158Z,6.50
2022-10-18T03:50:45.589Z,6.27
2022-10-18T03:53:34.084Z,6.37
2022-10-18T03:56:22.554Z,6.30
2022-10-18T03:59:10.968Z,6.17
2022-10-18T04:01:59.459Z,6.60
2022-10-18T04:04:49.458Z,7.13
2022-10-18T04:07:37.940Z,7.20
2022-10-18T04:10:29.351Z,6.70
2022-10-18T04:13:17.757Z,6.87
2022-10-18T04:16:06.405Z,6.73
2022-10-18T04:18:54.806Z,6.60
2022-10-18T04:21:44.613Z,7.30
2022-10-18T04:24:33.041Z,7.07
2022-10-18T04:27:21.463Z,6.70
2022-10-18T04:30:10.777Z,6.67
2022-10-18T04:32:59.186Z,6.80
2022-10-18T04:35:47.796Z,6.93
2022-10-18T04:38:37.545Z,6.93
2022-10-18T04:41:26.016Z,6.07
2022-10-18T04:44:14.488Z,6.30
2022-10-18T04:47:02.887Z,6.83
2022-10-18T04:49:51.290Z,6.93
2022-10-18T04:52:39.757Z,6.90
2022-10-18T04:55:29.583Z,6.67
2022-10-18T04:58:18.316Z,6.77
2022-10-18T05:01:07.435Z,7.20
2022-10-18T05:03:56.108Z,7.03
2022-10-18T05:06:44.586Z,6.33
2022-10-18T05:09:33.020Z,8.83
2022-10-18T05:12:23.195Z,6.97
2022-10-18T05:15:11.843Z,6.50
2022-10-18T05:18:00.236Z,6.77
2022-10-18T05:20:48.661Z,6.43
2022-10-18T05:23:37.153Z,7.10
2022-10-18T05:26:25.586Z,6.73
2022-10-18T05:29:15.505Z,6.60
2022-10-18T05:32:04.245Z,7.60
2022-10-18T05:34:52.680Z,6.07
2022-10-18T05:37:41.135Z,5.93
2022-10-18T05:40:29.533Z,6.43
2022-10-18T05:43:18.604Z,6.20
2022-10-18T05:46:13.622Z,6.90
2022-10-18T05:49:03.775Z,6.97
2022-10-18T05:51:52.259Z,7.17
2022-10-18T05:54:40.663Z,6.40
2022-10-18T05:57:29.284Z,6.77
2022-10-18T06:00:18.249Z,7.73
2022-10-18T06:03:08.057Z,6.73
2022-10-18T06:06:00.599Z,7.13
2022-10-18T06:08:50.409Z,6.50
2022-10-18T06:11:38.828Z,6.80
2022-10-18T06:14:27.267Z,7.10
2022-10-18T06:17:15.691Z,7.73
2022-10-18T06:20:07.307Z,6.53
2022-10-18T06:22:55.698Z,6.67
2022-10-18T06:25:44.115Z,7.80
2022-10-18T06:28:32.545Z,7.37
2022-10-18T06:31:21.599Z,7.27
2022-10-18T06:34:10.007Z,6.97
2022-10-18T06:36:59.835Z,7.20
2022-10-18T06:39:48.235Z,8.67
2022-10-18T06:42:36.816Z,7.10
2022-10-18T06:45:25.267Z,7.30
2022-10-18T06:48:13.892Z,7.90
2022-10-18T06:51:03.650Z,5.93
2022-10-18T06:54:06.308Z,7.07
2022-10-18T06:57:02.695Z,7.40
2022-10-18T06:59:51.926Z,6.63
2022-10-18T07:02:41.287Z,6.60
2022-10-18T07:05:29.779Z,7.00
2022-10-18T07:08:18.715Z,6.77
2022-10-18T07:11:09.247Z,8.63
2022-10-18T07:14:03.057Z,8.40
2022-10-18T07:16:51.491Z,7.57
2022-10-18T07:19:39.947Z,8.57
2022-10-18T07:22:30.402Z,7.90
2022-10-18T07:25:19.140Z,7.73
2022-10-18T07:28:08.968Z,8.33
2022-10-18T07:30:59.442Z,7.97
2022-10-18T07:33:50.803Z,8.10
2022-10-18T07:36:39.243Z,7.87
2022-10-18T07:39:27.713Z,7.27
2022-10-18T07:42:16.141Z,8.03
2022-10-18T07:45:06.911Z,7.33
2022-10-18T07:47:56.214Z,7.50
2022-10-18T07:50:44.632Z,10.23
2022-10-18T07:53:34.530Z,6.20
2022-10-18T07:56:23.243Z,5.73
2022-10-18T07:59:12.259Z,7.23
2022-10-18T08:02:02.066Z,7.37
2022-10-18T08:04:50.512Z,6.60
2022-10-18T08:07:38.935Z,7.23
2022-10-18T08:10:27.439Z,6.70
2022-10-18T08:13:16.371Z,7.87
2022-10-18T08:16:06.884Z,7.30
2022-10-18T08:18:58.629Z,7.27
2022-10-18T08:21:47.105Z,6.60
2022-10-18T08:24:35.564Z,7.03
2022-10-18T08:27:25.465Z,6.47
2022-10-18T08:30:14.395Z,7.50
2022-10-18T08:33:02.977Z,5.80
2022-10-18T08:35:59.667Z,6.77
2022-10-18T08:38:49.217Z,6.63
2022-10-18T08:41:52.719Z,5.27
2022-10-18T08:44:45.584Z,4.47
2022-10-18T08:47:36.962Z,5.00
2022-10-18T08:50:28.029Z,4.77
2022-10-18T08:53:21.378Z,4.53
2022-10-18T08:56:14.739Z,4.83
2022-10-18T08:59:03.996Z,5.00
2022-10-18T09:02:00.718Z,5.00
2022-10-18T09:04:53.230Z,4.70
2022-10-18T09:08:00.593Z,4.77
2022-10-18T09:14:18.406Z,4.13
2022-10-18T09:17:16.193Z,4.30
2022-10-18T09:20:15.510Z,4.70
2022-10-18T09:23:08.315Z,4.30
2022-10-18T09:26:03.751Z,3.60
2022-10-18T09:29:02.307Z,4.80
2022-10-18T09:31:54.434Z,4.30
2022-10-18T09:34:47.543Z,4.20
2022-10-18T09:37:36.198Z,5.33
2022-10-18T09:40:26.982Z,4.57
2022-10-18T09:43:19.607Z,4.27
2022-10-18T09:46:08.311Z,4.60
2022-10-18T09:49:00.246Z,4.90
2022-10-18T09:51:50.601Z,5.10
2022-10-18T09:54:41.420Z,5.33
2022-10-18T09:57:33.769Z,5.10
2022-10-18T10:00:27.204Z,4.83
2022-10-18T10:03:15.894Z,5.23
2022-10-18T10:06:24.152Z,4.40
2022-10-18T10:09:16.704Z,5.13
2022-10-18T10:12:05.602Z,5.40
2022-10-18T10:14:54.066Z,4.80
2022-10-18T10:17:44.110Z,4.43
2022-10-18T10:20:36.462Z,4.40
2022-10-18T10:23:28.138Z,5.30
2022-10-18T10:26:23.839Z,4.10
2022-10-18T10:29:48.809Z,5.23
2022-10-18T10:32:48.211Z,4.50
2022-10-18T10:35:54.093Z,4.57
2022-10-18T10:38:42.883Z,5.00
2022-10-18T10:44:22.991Z,4.80
2022-10-18T10:47:12.317Z,4.67
2022-10-18T10:50:10.817Z,5.00
2022-10-18T10:52:59.652Z,4.97
2022-10-18T10:55:54.104Z,4.73
2022-10-18T10:58:42.528Z,4.50
2022-10-18T11:01:34.021Z,4.80
2022-10-18T11:04:27.712Z,4.90
2022-10-18T11:07:22.616Z,5.27
2022-10-18T11:10:14.545Z,4.70
2022-10-18T11:13:08.732Z,4.67
2022-10-18T11:16:00.696Z,4.43
2022-10-18T11:18:50.514Z,4.60
2022-10-18T11:21:39.388Z,5.17
2022-10-18T11:24:29.381Z,4.33
2022-10-18T11:27:21.615Z,4.00
2022-10-18T11:30:36.309Z,4.37
2022-10-18T11:33:56.464Z,4.30
2022-10-18T11:36:56.248Z,4.40
2022-10-18T11:39:57.382Z,4.27
2022-10-18T11:42:49.260Z,4.43
2022-10-18T11:45:44.242Z,4.27
2022-10-18T11:48:51.804Z,3.70
2022-10-18T11:52:07.298Z,3.60
2022-10-18T11:55:06.592Z,3.70
2022-10-18T11:57:58.735Z,4.10
2022-10-18T12:00:52.678Z,3.53
2022-10-18T12:03:50.842Z,4.13
2022-10-18T12:06:41.403Z,3.40
2022-10-18T12:09:32.481Z,3.27
2022-10-18T12:12:24.670Z,3.60
2022-10-18T12:15:17.435Z,3.83
2022-10-18T12:18:08.185Z,3.83
2022-10-18T12:20:58.270Z,3.97
2022-10-18T12:23:52.380Z,3.93
2022-10-18T12:26:40.971Z,3.70
2022-10-18T12:29:32.707Z,3.67
2022-10-18T12:32:22.867Z,3.23
2022-10-18T12:35:13.694Z,3.47
2022-10-18T12:38:15.895Z,3.43
2022-10-18T12:41:04.677Z,3.60
2022-10-18T12:43:54.367Z,3.23
2022-10-18T12:46:49.676Z,3.43
2022-10-18T12:49:41.484Z,3.00
2022-10-18T12:52:34.525Z,3.27
2022-10-18T12:55:31.141Z,3.00
2022-10-18T12:58:30.945Z,3.17
2022-10-18T13:01:19.467Z,3.53
2022-10-18T13:04:35.281Z,3.00
2022-10-18T13:07:40.862Z,2.73
2022-10-18T13:10:38.158Z,2.80
2022-10-18T13:13:47.548Z,3.30
2022-10-18T13:16:40.555Z,3.40
2022-10-18T13:19:35.481Z,3.40
2022-10-18T13:22:36.366Z,3.40
2022-10-18T13:25:29.741Z,3.33
2022-10-18T13:28:25.191Z,3.80
2022-10-18T13:31:21.032Z,3.37
2022-10-18T13:34:25.950Z,3.73
2022-10-18T13:37:24.012Z,3.40
2022-10-18T13:40:16.916Z,4.37
2022-10-18T13:43:38.486Z,3.90
2022-10-18T13:47:19.702Z,3.67
2022-10-18T13:50:26.048Z,4.27
2022-10-18T13:53:34.187Z,4.27
2022-10-18T13:56:53.249Z,4.87
2022-10-18T13:59:56.188Z,4.50
2022-10-18T14:03:00.073Z,4.20
2022-10-18T14:05:53.134Z,5.13
2022-10-18T14:08:45.253Z,5.17
2022-10-18T14:11:39.704Z,4.80
2022-10-18T14:14:34.287Z,4.30
2022-10-18T14:17:29.770Z,5.00
2022-10-18T14:20:27.217Z,4.53
2022-10-18T14:23:21.441Z,4.73
2022-10-18T14:26:12.789Z,5.20
2022-10-18T14:29:06.044Z,4.53
2022-10-18T14:31:56.321Z,4.97
2022-10-18T14:34:45.332Z,5.13
2022-10-18T14:37:35.795Z,5.33
2022-10-18T14:40:32.725Z,4.73
2022-10-18T14:43:21.300Z,5.93
2022-10-18T14:46:11.117Z,5.00
2022-10-18T14:49:01.387Z,5.20
2022-10-18T14:51:52.064Z,5.47
2022-10-18T14:54:40.800Z,4.90
2022-10-18T14:57:32.300Z,5.20
2022-10-18T15:03:17.569Z,5.70
2022-10-18T15:06:08.448Z,5.90
2022-10-18T15:08:58.686Z,5.67
2022-10-18T15:11:47.847Z,6.60
2022-10-18T15:14:37.848Z,7.00
2022-10-18T15:17:27.476Z,6.00
2022-10-18T15:20:22.504Z,6.17
2022-10-18T15:23:24.171Z,6.10
2022-10-18T15:26:14.333Z,5.70
2022-10-18T15:29:06.114Z,6.00
2022-10-18T15:31:57.479Z,5.77
2022-10-18T15:34:46.839Z,5.90
2022-10-18T15:37:39.197Z,6.27
2022-10-18T15:40:35.156Z,5.17
2022-10-18T15:43:37.673Z,5.87
2022-10-18T15:46:33.632Z,6.73
2022-10-18T15:49:54.459Z,6.80
2022-10-18T15:52:43.493Z,6.97
2022-10-18T15:55:49.721Z,6.37
2022-10-18T15:58:41.747Z,6.47
2022-10-18T16:01:34.784Z,6.50
2022-10-18T16:04:26.763Z,6.57
2022-10-18T16:07:16.654Z,6.93
2022-10-18T16:10:13.475Z,6.10
2022-10-18T16:13:01.909Z,6.70
2022-10-18T16:15:50.403Z,7.10
2022-10-18T16:18:38.944Z,7.00
2022-10-18T16:21:28.752Z,7.77
2022-10-18T16:24:18.902Z,6.50
2022-10-18T16:27:07.564Z,6.83
2022-10-18T16:29:56.157Z,7.53
2022-10-18T16:32:44.608Z,6.73
2022-10-18T16:35:34.181Z,6.27
2022-10-18T16:38:29.925Z,6.17
2022-10-18T16:41:22.770Z,6.13
2022-10-18T16:44:11.395Z,6.23
2022-10-18T16:46:59.884Z,6.30
2022-10-18T16:49:49.150Z,6.80
2022-10-18T16:52:37.697Z,6.40
2022-10-18T16:55:26.146Z,7.20
2022-10-18T16:58:18.644Z,7.60
2022-10-18T17:01:08.982Z,5.60
2022-10-18T17:03:57.673Z,6.37
2022-10-18T17:06:46.189Z,6.73
2022-10-18T17:09:36.837Z,6.27
2022-10-18T17:12:25.297Z,5.87
2022-10-18T17:15:15.163Z,7.30
2022-10-18T17:18:03.972Z,6.50
2022-10-18T17:20:52.407Z,7.00
2022-10-18T17:23:40.932Z,6.40
2022-10-18T17:26:30.275Z,6.60
2022-10-18T17:29:19.097Z,7.67
2022-10-18T17:32:09.126Z,6.33
2022-10-18T17:34:57.591Z,7.00
2022-10-18T17:37:48.518Z,6.50
2022-10-18T17:40:43.431Z,6.33
2022-10-18T17:43:32.040Z,5.90
2022-10-18T17:46:21.020Z,7.00
2022-10-18T17:49:10.864Z,6.10
2022-10-18T17:52:03.304Z,6.23
2022-10-18T17:54:55.263Z,6.70
2022-10-18T17:57:44.237Z,5.60
2022-10-18T18:00:32.811Z,5.83
2022-10-18T18:03:21.548Z,6.47
2022-10-18T18:06:16.260Z,5.97
2022-10-18T18:09:07.952Z,5.83
2022-10-18T18:11:56.597Z,6.87
2022-10-18T18:14:45.183Z,7.10
2022-10-18T18:17:34.325Z,6.43
2022-10-18T18:20:28.486Z,6.87
2022-10-18T18:23:19.553Z,7.10
2022-10-18T18:26:08.375Z,7.50
2022-10-18T18:28:56.914Z,6.73
2022-10-18T18:31:45.414Z,6.93
2022-10-18T18:34:34.202Z,6.87
2022-10-18T18:37:22.606Z,6.47
2022-10-18T18:40:12.665Z,7.10
2022-10-18T18:43:12.537Z,7.73
2022-10-18T18:46:10.080Z,6.80
2022-10-18T18:48:59.132Z,7.70
2022-10-18T18:51:47.700Z,6.90
2022-10-18T18:54:36.165Z,7.37
2022-10-18T18:57:26.075Z,10.90
2022-10-18T19:00:15.892Z,9.10
2022-10-18T19:03:04.384Z,8.13
2022-10-18T19:05:52.837Z,7.97
2022-10-18T19:08:41.321Z,9.37
2022-10-18T19:11:32.337Z,7.90
2022-10-18T19:14:24.073Z,6.73
2022-10-18T19:17:13.400Z,8.00
2022-10-18T19:20:01.841Z,7.90
2022-10-18T19:22:50.355Z,8.90
2022-10-18T19:25:40.566Z,8.17
2022-10-18T19:28:29.174Z,8.30
2022-10-18T19:31:19.308Z,8.27
2022-10-18T19:34:09.496Z,7.37
2022-10-18T19:36:58.055Z,7.20
2022-10-18T19:39:46.607Z,7.70
2022-10-18T19:42:37.382Z,7.70
2022-10-18T19:45:26.256Z,7.10
2022-10-18T19:48:16.086Z,7.00
2022-10-18T19:51:07.070Z,7.60
2022-10-18T19:53:58.223Z,8.10
2022-10-18T19:56:46.815Z,8.80
2022-10-18T19:59:35.980Z,7.80
2022-10-18T20:02:24.602Z,6.50
2022-10-18T20:05:14.433Z,7.00
2022-10-18T20:08:03.694Z,6.97
2022-10-18T20:10:52.214Z,7.70
2022-10-18T20:13:40.875Z,7.47
2022-10-18T20:16:31.164Z,6.50
2022-10-18T20:19:19.623Z,6.33
2022-10-18T20:22:09.510Z,6.13
2022-10-18T20:24:58.024Z,6.10
2022-10-18T20:27:46.456Z,7.33
2022-10-18T20:30:34.927Z,6.57
2022-10-18T20:33:23.379Z,7.30
2022-10-18T20:36:13.599Z,6.57
2022-10-18T20:39:05.262Z,6.70
2022-10-18T20:41:53.694Z,6.17
2022-10-18T20:44:43.515Z,6.80
2022-10-18T20:47:32.268Z,6.93
2022-10-18T20:50:20.955Z,7.57
2022-10-18T20:53:09.359Z,6.97
2022-10-18T20:56:05.196Z,7.43
2022-10-18T20:58:55.651Z,7.13
2022-10-18T21:01:44.139Z,7.83
2022-10-18T21:04:32.603Z,7.77
2022-10-18T21:07:21.079Z,6.73
2022-10-18T21:10:10.026Z,6.97
2022-10-18T21:12:59.796Z,6.73
2022-10-18T21:15:55.018Z,6.90
2022-10-18T21:18:43.504Z,7.07
2022-10-18T21:21:32.047Z,5.93
2022-10-18T21:24:21.304Z,7.37
2022-10-18T21:27:09.697Z,6.10
2022-10-18T21:29:59.506Z,7.70
2022-10-18T21:32:49.672Z,6.43
2022-10-18T21:35:38.620Z,7.10
2022-10-18T21:38:27.054Z,7.53
2022-10-18T21:41:16.920Z,6.83
2022-10-18T21:44:08.395Z,6.80
2022-10-18T21:47:00.472Z,7.10
2022-10-18T21:49:48.895Z,7.13
2022-10-18T21:52:38.086Z,6.90
2022-10-18T21:55:26.557Z,6.73
2022-10-18T21:58:15.045Z,5.67
2022-10-18T22:01:03.787Z,6.60
2022-10-18T22:03:55.165Z,5.57
2022-10-18T22:06:43.610Z,6.47
2022-10-18T22:09:32.376Z,6.70
2022-10-18T22:12:20.881Z,7.20
2022-10-18T22:15:09.960Z,6.27
2022-10-18T22:17:58.363Z,6.30
2022-10-18T22:20:55.715Z,8.13
2022-10-18T22:23:45.645Z,8.00
2022-10-18T22:26:37.143Z,6.50
2022-10-18T22:29:25.556Z,7.70
2022-10-18T22:32:13.965Z,6.27
2022-10-18T22:35:02.375Z,6.70
2022-10-18T22:37:54.564Z,7.60
2022-10-18T22:40:43.303Z,6.73
2022-10-18T22:43:31.749Z,6.90
2022-10-18T22:46:20.804Z,7.37
2022-10-18T22:49:09.640Z,7.50
2022-10-18T22:51:58.049Z,6.90
2022-10-18T22:54:47.814Z,7.23
2022-10-18T22:57:36.233Z,6.77
2022-10-18T23:00:24.706Z,6.63
2022-10-18T23:03:15.791Z,6.67
2022-10-18T23:06:05.263Z,6.67
2022-10-18T23:08:54.616Z,7.77
2022-10-18T23:11:44.502Z,7.27
2022-10-18T23:14:32.904Z,7.60
2022-10-18T23:17:21.323Z,6.40
2022-10-18T23:20:10.416Z,8.53
2022-10-18T23:22:58.908Z,6.70
2022-10-18T23:25:50.996Z,7.40
2022-10-18T23:28:43.025Z,7.40
2022-10-18T23:31:33.042Z,6.70
2022-10-18T23:34:21.561Z,5.90
2022-10-18T23:37:09.993Z,7.20
2022-10-18T23:39:58.412Z,6.80
2022-10-18T23:42:46.841Z,6.70
2022-10-18T23:45:36.702Z,7.00
2022-10-18T23:48:25.303Z,7.10
2022-10-18T23:51:13.857Z,8.23
2022-10-18T23:54:02.248Z,7.70
2022-10-18T23:56:50.705Z,9.63
2022-10-18T23:59:39.171Z,11.53
